Time;durP1;ratioP1;P1;durP2;ratioP2;P2;SDS_P1;SDS_P2;PMS_P1;PMS_P2;Temp;Humidity;BMP_temperature;BMP_pressure;BME280_temperature;BME280_humidity;BME280_pressure;Samples;Min_cycle;Max_cycle;Signal;HPM_P1;HPM_P2
2022/09/20 00:01:27;;;;;;;6.93;1.77;;;;;;;7.55;95.51;99209.50;4988013;28;20239;-54
2022/09/20 00:03:56;;;;;;;6.93;1.93;;;;;;;7.44;96.72;99199.09;4985481;28;20582;-52
2022/09/20 00:06:43;;;;;;;6.43;1.50;;;;;;;7.34;96.77;99209.38;4987872;28;20723;-53
2022/09/20 00:09:10;;;;;;;8.07;2.00;;;;;;;7.35;96.49;99204.03;4987595;28;20237;-53
2022/09/20 00:11:37;;;;;;;8.83;1.90;;;;;;;7.30;97.20;99211.34;4988674;28;20330;-54
2022/09/20 00:14:07;;;;;;;5.27;1.87;;;;;;;7.24;96.79;99209.22;4987271;28;20661;-55
2022/09/20 00:16:38;;;;;;;6.03;1.70;;;;;;;7.17;97.06;99216.66;4987741;28;20236;-56
2022/09/20 00:19:06;;;;;;;6.97;2.07;;;;;;;7.08;97.90;99206.94;4982508;28;20637;-52
2022/09/20 00:21:35;;;;;;;9.70;1.90;;;;;;;6.99;97.30;99211.03;4987857;28;20312;-52
2022/09/20 00:24:04;;;;;;;6.77;1.80;;;;;;;6.88;97.42;99206.66;4987701;28;20245;-52
2022/09/20 00:26:31;;;;;;;7.23;1.93;;;;;;;6.91;98.09;99205.56;4994404;28;20811;-52
2022/09/20 00:28:58;;;;;;;6.33;1.90;;;;;;;6.88;98.58;99208.44;4979597;28;20220;-53
2022/09/20 00:31:25;;;;;;;7.43;2.13;;;;;;;6.83;98.91;99207.94;4989317;28;20232;-52
2022/09/20 00:36:37;;;;;;;11.03;2.00;;;;;;;6.69;97.69;99196.78;4990298;28;20240;-55
2022/09/20 00:39:06;;;;;;;7.33;1.50;;;;;;;6.74;98.95;99209.41;4981679;28;20232;-55
2022/09/20 00:41:33;;;;;;;11.53;2.00;;;;;;;6.74;99.38;99209.41;4989263;28;20232;-55
2022/09/20 00:44:00;;;;;;;12.07;2.17;;;;;;;6.64;99.76;99206.69;4983539;28;20228;-54
2022/09/20 00:46:34;;;;;;;8.70;2.17;;;;;;;6.62;100.00;99211.16;4986513;28;20244;-54
2022/09/20 00:49:05;;;;;;;4.63;1.60;;;;;;;6.54;100.00;99209.09;4987455;28;20217;-52
2022/09/20 00:51:36;;;;;;;7.83;1.50;;;;;;;6.55;100.00;99209.94;4992503;28;20233;-52
2022/09/20 00:54:08;;;;;;;10.30;1.77;;;;;;;6.53;100.00;99202.25;4978367;28;20233;-55
2022/09/20 00:56:39;;;;;;;3.60;1.80;;;;;;;6.46;100.00;99211.41;4983979;28;20240;-55
2022/09/20 00:59:14;;;;;;;5.23;2.20;;;;;;;6.43;100.00;99216.81;4984841;28;20296;-52
2022/09/20 01:01:42;;;;;;;3.90;2.10;;;;;;;6.40;100.00;99209.25;4988312;28;20766;-54
2022/09/20 01:04:09;;;;;;;9.73;2.17;;;;;;;6.29;100.00;99207.44;4986145;28;20918;-52
2022/09/20 01:06:36;;;;;;;6.43;1.70;;;;;;;6.21;100.00;99215.75;4988874;28;20715;-52
2022/09/20 01:09:06;;;;;;;6.77;1.93;;;;;;;6.25;100.00;99212.03;4987087;28;20587;-54
2022/09/20 01:11:34;;;;;;;7.57;2.00;;;;;;;6.23;100.00;99213.91;4987424;28;20727;-54
2022/09/20 01:14:01;;;;;;;8.70;1.70;;;;;;;6.22;100.00;99216.56;4984972;28;20245;-55
2022/09/20 01:16:30;;;;;;;8.63;1.97;;;;;;;6.19;100.00;99215.03;4993846;28;20229;-54
2022/09/20 01:19:00;;;;;;;8.53;1.73;;;;;;;6.16;100.00;99215.25;4988779;28;20255;-53
2022/09/20 01:21:28;;;;;;;6.07;1.90;;;;;;;6.15;100.00;99214.41;4987389;28;20400;-54
2022/09/20 01:24:02;;;;;;;6.20;1.80;;;;;;;6.16;100.00;99215.25;4979552;28;20339;-52
2022/09/20 01:26:56;;;;;;;7.00;2.00;;;;;;;6.10;100.00;99213.09;4988101;28;20263;-54
2022/09/20 01:29:38;;;;;;;6.03;2.00;;;;;;;6.07;100.00;99216.72;4989757;28;20306;-54
2022/09/20 01:32:11;;;;;;;5.07;1.63;;;;;;;6.04;100.00;99222.13;4991083;28;20232;-53
2022/09/20 01:34:45;;;;;;;6.73;1.77;;;;;;;6.02;100.00;99209.28;4992757;28;20240;-53
2022/09/20 01:37:18;;;;;;;5.60;2.67;;;;;;;6.00;100.00;99205.97;4989117;28;20239;-55
2022/09/20 01:39:54;;;;;;;7.43;2.20;;;;;;;6.00;100.00;99210.28;4983740;28;20249;-54
2022/09/20 01:42:27;;;;;;;7.73;2.20;;;;;;;6.07;100.00;99202.94;4987438;28;20236;-53
2022/09/20 01:45:01;;;;;;;6.97;2.10;;;;;;;6.15;100.00;99205.81;4989002;28;20353;-55
2022/09/20 01:47:55;;;;;;;7.55;2.00;;;;;;;6.19;100.00;99202.91;4981121;28;20872;-53
2022/09/20 01:50:33;;;;;;;9.30;1.60;;;;;;;6.17;100.00;99193.59;4990840;28;20243;-55
2022/09/20 01:53:39;;;;;;;6.27;1.87;;;;;;;6.11;100.00;99196.63;4989858;28;20286;-54
2022/09/20 01:56:44;;;;;;;6.33;1.90;;;;;;;6.16;100.00;99191.94;4988475;28;20244;-52
2022/09/20 01:59:27;;;;;;;7.70;2.07;;;;;;;6.21;100.00;99197.63;4993733;28;20240;-53
2022/09/20 02:02:21;;;;;;;7.30;1.90;;;;;;;6.13;100.00;99198.16;4988318;28;20605;-55
2022/09/20 02:05:17;;;;;;;4.73;2.17;;;;;;;6.07;100.00;99190.81;4983879;28;20332;-54
2022/09/20 02:08:07;;;;;;;4.17;1.87;;;;;;;6.02;100.00;99193.72;4989740;28;20266;-52
2022/09/20 02:10:41;;;;;;;7.57;2.00;;;;;;;5.94;100.00;99190.81;4990952;28;20237;-53
2022/09/20 02:13:11;;;;;;;6.87;2.00;;;;;;;5.97;100.00;99193.19;4986773;28;20234;-54
2022/09/20 02:16:00;;;;;;;7.30;2.03;;;;;;;5.94;100.00;99185.63;4986115;28;20263;-55
2022/09/20 02:18:46;;;;;;;5.97;2.00;;;;;;;5.87;100.00;99194.75;4992312;28;20230;-53
2022/09/20 02:21:27;;;;;;;4.73;1.73;;;;;;;5.87;100.00;99189.59;4992700;28;20726;-54
2022/09/20 02:24:05;;;;;;;5.83;1.60;;;;;;;5.96;100.00;99196.72;4991601;28;20233;-52
2022/09/20 02:26:41;;;;;;;23.63;3.53;;;;;;;5.89;100.00;99183.34;4997565;28;20286;-52
2022/09/20 02:29:23;;;;;;;5.90;2.07;;;;;;;5.82;100.00;99191.66;4989813;28;20236;-53
2022/09/20 02:32:07;;;;;;;8.07;2.57;;;;;;;5.74;100.00;99187.03;4988746;28;20263;-53
2022/09/20 02:35:03;;;;;;;5.20;2.13;;;;;;;5.72;100.00;99192.28;4999373;28;20233;-55
2022/09/20 02:37:47;;;;;;;6.33;1.97;;;;;;;5.78;100.00;99190.22;4985596;28;20252;-53
2022/09/20 02:40:27;;;;;;;6.47;2.00;;;;;;;5.78;100.00;99192.81;4985527;28;20245;-55
2022/09/20 02:43:02;;;;;;;7.30;2.27;;;;;;;5.79;100.00;99194.47;4990918;28;20709;-55
2022/09/20 02:45:35;;;;;;;5.93;2.43;;;;;;;5.67;100.00;99191.78;4991768;28;20235;-55
2022/09/20 02:48:04;;;;;;;7.20;2.43;;;;;;;5.67;100.00;99189.19;4991156;28;20704;-54
2022/09/20 02:50:42;;;;;;;7.13;2.10;;;;;;;5.63;100.00;99185.16;4991692;28;20778;-53
2022/09/20 02:53:24;;;;;;;11.17;2.80;;;;;;;5.63;100.00;99185.16;4990110;28;20282;-53
2022/09/20 02:56:12;;;;;;;9.03;1.97;;;;;;;5.63;100.00;99192.13;4986974;28;20712;-55
2022/09/20 02:58:51;;;;;;;10.20;2.50;;;;;;;5.64;100.00;99199.75;4989692;28;20231;-52
2022/09/20 03:04:15;;;;;;;10.30;3.00;;;;;;;5.76;100.00;99203.28;5701950;23;20229;-56
2022/09/20 03:06:51;;;;;;;7.53;2.20;;;;;;;5.90;100.00;99194.56;4988003;28;20738;-56
2022/09/20 03:09:38;;;;;;;5.20;1.97;;;;;;;6.02;100.00;99203.25;5004149;28;20236;-57
2022/09/20 03:12:17;;;;;;;5.07;1.90;;;;;;;6.10;100.00;99200.94;4984810;28;20233;-56
2022/09/20 03:14:55;;;;;;;8.00;2.00;;;;;;;6.16;100.00;99203.13;4973638;28;20701;-55
2022/09/20 03:17:30;;;;;;;5.13;2.23;;;;;;;6.27;100.00;99201.53;4971193;28;20237;-56
2022/09/20 03:20:23;;;;;;;7.33;1.80;;;;;;;6.39;100.00;99207.59;4964606;28;20237;-55
2022/09/20 03:22:59;;;;;;;10.07;2.30;;;;;;;6.50;100.00;99207.66;4964953;28;20296;-56
2022/09/20 03:25:45;;;;;;;6.07;2.00;;;;;;;6.60;100.00;99210.44;4966997;28;20245;-56
2022/09/20 03:28:28;;;;;;;5.30;2.50;;;;;;;6.66;100.00;99202.19;4967769;28;20645;-56
2022/09/20 03:31:05;;;;;;;8.93;2.00;;;;;;;6.68;100.00;99204.66;4965621;28;20296;-56
2022/09/20 03:33:44;;;;;;;8.50;1.93;;;;;;;6.68;100.00;99212.47;4971791;28;20236;-57
2022/09/20 03:36:28;;;;;;;5.70;2.20;;;;;;;6.57;100.00;99205.47;4965137;28;20292;-56
2022/09/20 03:39:19;;;;;;;9.27;2.40;;;;;;;6.47;100.00;99219.09;4965877;28;20235;-54
2022/09/20 03:41:56;;;;;;;5.47;1.67;;;;;;;6.42;100.00;99210.81;4964053;28;20232;-55
2022/09/20 03:44:41;;;;;;;7.60;2.13;;;;;;;6.32;100.00;99212.41;4959935;28;20334;-57
2022/09/20 03:47:24;;;;;;;10.60;2.30;;;;;;;6.29;100.00;99221.25;4965499;28;20221;-56
2022/09/20 03:50:19;;;;;;;9.83;2.10;;;;;;;6.33;100.00;99220.09;4965791;28;20268;-56
2022/09/20 03:53:05;;;;;;;7.67;2.30;;;;;;;6.35;100.00;99220.81;4965477;28;20771;-56
2022/09/20 03:55:57;;;;;;;7.83;2.07;;;;;;;6.39;100.00;99230.94;4966251;28;20708;-56
2022/09/20 03:58:35;;;;;;;4.17;2.33;;;;;;;6.37;100.00;99225.03;4965087;28;20272;-56
2022/09/20 04:01:19;;;;;;;11.57;2.00;;;;;;;6.38;100.00;99235.31;4964182;28;20245;-57
2022/09/20 04:03:54;;;;;;;7.97;2.67;;;;;;;6.39;100.00;99236.97;4965162;28;20681;-56
2022/09/20 04:06:44;;;;;;;6.20;2.90;;;;;;;6.40;100.00;99233.44;4969558;28;20241;-56
2022/09/20 04:09:34;;;;;;;17.40;11.60;;;;;;;6.41;100.00;99234.25;4963553;28;20233;-56
2022/09/20 04:12:12;;;;;;;11.87;8.10;;;;;;;6.52;100.00;99231.72;4971092;28;20799;-57
2022/09/20 04:15:15;;;;;;;15.10;5.87;;;;;;;6.54;100.00;99244.59;4965417;28;20241;-56
2022/09/20 04:17:49;;;;;;;13.43;7.33;;;;;;;6.54;100.00;99234.22;4963681;28;20240;-55
2022/09/20 04:20:22;;;;;;;9.43;4.20;;;;;;;6.56;100.00;99242.72;4967637;28;20269;-56
2022/09/20 04:22:54;;;;;;;7.63;2.70;;;;;;;6.69;100.00;99246.09;4962685;28;20641;-56
2022/09/20 04:25:26;;;;;;;11.47;3.13;;;;;;;6.75;100.00;99244.81;4966033;28;20776;-56
2022/09/20 04:28:00;;;;;;;4.77;2.43;;;;;;;6.82;100.00;99243.41;4962869;28;20257;-57
2022/09/20 04:30:29;;;;;;;7.33;2.60;;;;;;;6.90;100.00;99241.09;4966098;28;20245;-56
2022/09/20 04:33:00;;;;;;;5.53;2.63;;;;;;;6.99;100.00;99241.38;4961904;28;20233;-56
2022/09/20 04:38:25;;;;;;;7.03;2.60;;;;;;;7.12;100.00;99252.50;4965477;28;20361;-56
2022/09/20 04:41:28;;;;;;;5.60;2.17;;;;;;;7.25;100.00;99255.00;4963403;28;20670;-55
2022/09/20 04:44:39;;;;;;;5.60;2.20;;;;;;;7.31;100.00;99244.16;4963445;28;20234;-56
2022/09/20 04:47:35;;;;;;;14.93;5.47;;;;;;;7.33;100.00;99246.66;4936294;28;20337;-57
2022/09/20 04:50:29;;;;;;;18.37;8.23;;;;;;;7.41;100.00;99246.91;4975239;28;22498;-57
2022/09/20 04:53:38;;;;;;;12.80;5.83;;;;;;;7.48;100.00;99253.28;4964840;28;20261;-56
2022/09/20 04:56:17;;;;;;;16.83;5.93;;;;;;;7.52;100.00;99253.91;4968014;28;20233;-56
2022/09/20 04:59:03;;;;;;;11.30;4.90;;;;;;;7.54;100.00;99254.59;4963970;28;20242;-54
2022/09/20 05:02:10;;;;;;;9.90;5.57;;;;;;;7.61;100.00;99263.59;4965375;28;20359;-57
2022/09/20 05:05:07;;;;;;;10.13;6.33;;;;;;;7.72;100.00;99259.34;4962289;28;20242;-56
2022/09/20 05:08:08;;;;;;;9.77;4.40;;;;;;;7.76;100.00;99269.38;4962492;28;20230;-56
2022/09/20 05:11:08;;;;;;;7.43;2.87;;;;;;;7.78;100.00;99270.09;4963334;28;20238;-57
2022/09/20 05:13:45;;;;;;;5.30;2.40;;;;;;;7.84;100.00;99266.22;4969592;28;20234;-56
2022/09/20 05:16:21;;;;;;;10.50;3.00;;;;;;;7.89;100.00;99265.84;4966113;28;20333;-58
2022/09/20 05:19:09;;;;;;;6.50;2.70;;;;;;;7.96;100.00;99275.66;4964611;28;20315;-55
2022/09/20 05:21:49;;;;;;;8.20;2.67;;;;;;;8.03;100.00;99278.63;4966998;28;20219;-57
2022/09/20 05:24:26;;;;;;;5.70;2.83;;;;;;;8.10;100.00;99272.00;4963741;28;20238;-58
2022/09/20 05:27:06;;;;;;;4.40;2.60;;;;;;;8.18;100.00;99280.97;4964685;28;20265;-58
2022/09/20 05:29:41;;;;;;;9.40;2.80;;;;;;;8.15;100.00;99279.44;4969239;28;20241;-58
2022/09/20 05:32:17;;;;;;;9.30;3.60;;;;;;;8.17;100.00;99282.75;4969550;28;20233;-58
2022/09/20 05:34:50;;;;;;;10.77;3.27;;;;;;;8.19;100.00;99280.03;4968050;28;20360;-57
2022/09/20 05:37:28;;;;;;;9.17;2.70;;;;;;;8.17;100.00;99287.13;4969687;28;20227;-56
2022/09/20 05:40:04;;;;;;;7.77;2.67;;;;;;;8.15;100.00;99283.81;4966889;28;20273;-56
2022/09/20 05:42:39;;;;;;;12.60;2.77;;;;;;;8.17;100.00;99284.53;4967994;28;20726;-54
2022/09/20 05:45:22;;;;;;;7.90;2.57;;;;;;;8.19;100.00;99275.66;4966418;28;20637;-56
2022/09/20 05:47:56;;;;;;;8.43;2.30;;;;;;;8.23;100.00;99276.25;4968069;28;20300;-58
2022/09/20 05:50:44;;;;;;;9.77;2.63;;;;;;;8.25;100.00;99276.97;4970374;28;20702;-58
2022/09/20 05:53:50;;;;;;;6.60;2.17;;;;;;;8.30;100.00;99287.84;4965813;28;20293;-57
2022/09/20 05:56:28;;;;;;;13.20;2.10;;;;;;;8.30;100.00;99281.78;4965958;28;20241;-56
2022/09/20 05:59:10;;;;;;;6.03;2.20;;;;;;;8.32;100.00;99275.53;4965804;28;20706;-56
2022/09/20 06:01:41;;;;;;;7.87;2.33;;;;;;;8.37;100.00;99289.00;4972931;28;20239;-56
2022/09/20 06:04:16;;;;;;;6.17;2.43;;;;;;;8.39;100.00;99286.28;4966598;28;20267;-57
2022/09/20 06:06:52;;;;;;;10.70;2.60;;;;;;;8.41;100.00;99282.63;4966224;28;20235;-56
2022/09/20 06:09:43;;;;;;;5.37;2.07;;;;;;;8.44;100.00;99280.72;4984424;28;20597;-57
2022/09/20 06:12:21;;;;;;;5.97;2.50;;;;;;;8.45;100.00;99279.78;4968716;28;20313;-56
2022/09/20 06:14:58;;;;;;;6.33;3.23;;;;;;;8.47;100.00;99280.47;4969739;28;20265;-57
2022/09/20 06:17:28;;;;;;;3.63;2.23;;;;;;;8.47;100.00;99289.09;4973388;28;20292;-57
2022/09/20 06:20:13;;;;;;;6.10;2.37;;;;;;;8.46;100.00;99287.44;4968354;28;20854;-56
2022/09/20 06:22:43;;;;;;;7.53;2.33;;;;;;;8.42;100.00;99286.88;4969919;28;20718;-56
2022/09/20 06:25:19;;;;;;;6.77;3.13;;;;;;;8.47;100.00;99285.69;4969520;28;20239;-56
2022/09/20 06:27:51;;;;;;;7.50;2.33;;;;;;;8.49;100.00;99297.66;4967560;28;20231;-56
2022/09/20 06:30:21;;;;;;;5.30;2.13;;;;;;;8.51;100.00;99287.94;4968902;28;20651;-56
2022/09/20 06:32:55;;;;;;;6.83;2.30;;;;;;;8.54;100.00;99295.50;4965252;28;20318;-54
2022/09/20 06:35:27;;;;;;;5.13;2.30;;;;;;;8.54;100.00;99295.50;4972124;28;20234;-55
2022/09/20 06:43:40;;;;;;;9.83;2.30;;;;;;;8.69;100.00;99293.47;4966617;28;20218;-57
2022/09/20 06:46:07;;;;;;;4.70;1.87;;;;;;;8.71;100.00;99303.75;4966456;28;20237;-57
2022/09/20 06:48:38;;;;;;;6.47;2.10;;;;;;;8.73;100.00;99296.66;4968046;28;20330;-56
2022/09/20 06:51:06;;;;;;;2.77;2.10;;;;;;;8.84;100.00;99304.44;4966406;28;20644;-56
2022/09/20 06:53:37;;;;;;;6.27;2.00;;;;;;;8.95;100.00;99294.94;4982100;28;20949;-57
2022/09/20 06:56:07;;;;;;;7.50;1.83;;;;;;;9.08;100.00;99297.38;4969469;28;20327;-57
2022/09/20 06:58:34;;;;;;;8.53;1.70;;;;;;;9.20;100.00;99298.97;4971435;28;20290;-57
2022/09/20 07:01:00;;;;;;;4.80;2.67;;;;;;;9.29;100.00;99303.44;4967931;28;20242;-56
2022/09/20 07:03:27;;;;;;;8.57;2.90;;;;;;;9.41;100.00;99303.38;4969182;28;20336;-57
2022/09/20 07:05:55;;;;;;;8.97;2.90;;;;;;;9.48;99.21;99307.13;4971472;28;20259;-55
2022/09/20 07:08:21;;;;;;;12.17;3.60;;;;;;;9.57;93.92;99308.94;4969383;28;20235;-58
2022/09/20 07:10:48;;;;;;;6.67;2.77;;;;;;;9.65;94.86;99302.28;4964529;28;20236;-57
2022/09/20 07:13:19;;;;;;;8.70;2.53;;;;;;;9.69;95.78;99306.28;4969307;28;20249;-57
2022/09/20 07:15:45;;;;;;;11.07;3.10;;;;;;;9.77;96.11;99303.84;4964722;28;20231;-57
2022/09/20 07:18:12;;;;;;;8.50;3.60;;;;;;;9.88;93.65;99313.41;4967654;28;20232;-56
2022/09/20 07:20:40;;;;;;;10.03;3.10;;;;;;;10.06;89.20;99308.41;4967705;28;20993;-57
2022/09/20 07:23:07;;;;;;;11.00;3.17;;;;;;;10.30;85.57;99317.69;4966135;28;20278;-56
2022/09/20 07:25:53;;;;;;;11.73;3.23;;;;;;;10.74;85.38;99312.22;4965972;28;20255;-57
2022/09/20 07:28:21;;;;;;;6.53;2.63;;;;;;;11.11;84.11;99318.56;4968916;28;20717;-57
2022/09/20 07:30:48;;;;;;;6.13;2.80;;;;;;;11.34;82.09;99317.31;4966505;28;20239;-57
2022/09/20 07:33:20;;;;;;;11.53;3.23;;;;;;;11.43;79.07;99317.47;4968404;28;20292;-57
2022/09/20 07:35:47;;;;;;;8.53;2.80;;;;;;;11.44;77.18;99322.53;4967689;28;20306;-57
2022/09/20 07:38:14;;;;;;;6.77;2.77;;;;;;;11.57;77.62;99321.41;4967722;28;20790;-57
2022/09/20 07:40:41;;;;;;;5.90;3.20;;;;;;;11.70;76.34;99323.72;4967947;28;20235;-56
2022/09/20 07:43:08;;;;;;;8.57;3.20;;;;;;;11.84;79.15;99323.28;4965511;28;20600;-57
2022/09/20 07:45:38;;;;;;;6.60;3.07;;;;;;;12.10;79.17;99330.53;4967387;28;20739;-57
2022/09/20 07:48:06;;;;;;;13.55;3.50;;;;;;;12.24;74.66;99327.47;4963638;28;20426;-57
2022/09/20 07:50:33;;;;;;;7.20;3.00;;;;;;;12.13;74.14;99332.06;4967529;28;20235;-55
2022/09/20 07:53:00;;;;;;;7.07;3.13;;;;;;;11.99;74.05;99331.53;4964580;28;20654;-57
2022/09/20 07:55:27;;;;;;;9.33;3.03;;;;;;;11.73;75.83;99339.97;4967662;28;20248;-56
2022/09/20 07:57:54;;;;;;;9.87;3.17;;;;;;;11.62;77.24;99343.59;4965254;28;20302;-55
2022/09/20 08:00:21;;;;;;;11.53;2.93;;;;;;;11.46;78.22;99348.56;4970405;28;21265;-57
2022/09/20 08:02:57;;;;;;;11.67;3.30;;;;;;;11.30;78.70;99346.47;4964552;28;20235;-56
2022/09/20 08:05:24;;;;;;;12.90;3.23;;;;;;;11.23;80.09;99347.03;4967859;28;20233;-56
2022/09/20 08:07:51;;;;;;;6.93;2.93;;;;;;;11.31;81.12;99346.34;4963253;28;20325;-54
2022/09/20 08:10:17;;;;;;;8.63;3.30;;;;;;;11.37;80.46;99351.03;4966637;28;20230;-57
2022/09/20 08:12:44;;;;;;;13.67;3.50;;;;;;;11.22;80.87;99353.22;4966695;28;20234;-56
2022/09/20 08:15:11;;;;;;;9.87;3.53;;;;;;;11.09;81.49;99352.69;4970213;28;20251;-58
2022/09/20 08:17:39;;;;;;;7.43;3.20;;;;;;;11.11;82.13;99353.38;4967450;28;20236;-55
2022/09/20 08:20:08;;;;;;;8.17;3.00;;;;;;;11.26;80.47;99347.72;4966696;28;20242;-56
2022/09/20 08:22:35;;;;;;;9.30;3.03;;;;;;;11.31;80.20;99351.56;4969943;28;20619;-57
2022/09/20 08:25:01;;;;;;;12.27;3.03;;;;;;;11.42;80.81;99357.63;4965912;28;20303;-56
2022/09/20 08:27:28;;;;;;;9.17;2.93;;;;;;;11.37;79.78;99361.47;4967419;28;20230;-57
2022/09/20 08:29:56;;;;;;;7.40;3.17;;;;;;;11.35;80.38;99363.41;4962026;28;20227;-56
2022/09/20 08:32:23;;;;;;;7.20;3.10;;;;;;;11.25;80.13;99365.19;4965431;28;20317;-56
2022/09/20 08:34:50;;;;;;;10.63;3.40;;;;;;;11.45;80.66;99357.34;4966349;28;20229;-57
2022/09/20 08:37:18;;;;;;;10.67;3.80;;;;;;;11.55;79.25;99360.78;4966106;28;20231;-57
2022/09/20 08:39:44;;;;;;;7.43;3.63;;;;;;;11.70;80.88;99360.34;4962953;28;20232;-57
2022/09/20 08:42:20;;;;;;;10.47;3.70;;;;;;;11.79;79.45;99368.19;4966746;28;20501;-57
2022/09/20 08:44:51;;;;;;;16.07;4.60;;;;;;;11.80;78.97;99361.16;4962685;28;20260;-57
2022/09/20 08:47:22;;;;;;;14.23;3.53;;;;;;;11.92;78.21;99352.19;4963247;28;20236;-56
2022/09/20 08:49:49;;;;;;;10.07;3.80;;;;;;;12.07;77.70;99362.22;4962882;28;20240;-58
2022/09/20 08:52:21;;;;;;;15.87;4.13;;;;;;;12.29;77.11;99352.38;4961685;28;20327;-57
2022/09/20 08:54:51;;;;;;;8.83;3.27;;;;;;;12.54;76.24;99349.09;4964986;28;20278;-57
2022/09/20 08:57:20;;;;;;;8.70;3.30;;;;;;;12.80;74.15;99352.81;4962787;28;20704;-57
2022/09/20 08:59:49;;;;;;;8.80;3.27;;;;;;;12.94;73.39;99354.09;4964503;28;20244;-57
2022/09/20 09:02:18;;;;;;;13.27;3.70;;;;;;;13.11;71.37;99361.16;4966982;28;20574;-56
2022/09/20 09:04:46;;;;;;;8.07;3.17;;;;;;;13.09;70.08;99360.47;4962193;28;20257;-58
2022/09/20 09:07:14;;;;;;;8.40;3.00;;;;;;;13.10;71.01;99367.38;4964768;28;20635;-57
2022/09/20 09:09:46;;;;;;;8.43;3.20;;;;;;;13.03;70.01;99349.78;4965214;28;20805;-57
2022/09/20 09:12:21;;;;;;;8.67;3.10;;;;;;;12.96;70.07;99355.59;4964551;28;20267;-56
2022/09/20 09:14:51;;;;;;;8.93;2.63;;;;;;;13.05;71.07;99361.75;4962776;28;20234;-57
2022/09/20 09:17:20;;;;;;;12.40;3.20;;;;;;;13.16;69.33;99357.25;4964645;28;20236;-63
2022/09/20 09:19:49;;;;;;;9.90;2.90;;;;;;;13.04;68.99;99356.66;4963109;28;20299;-57
2022/09/20 09:22:21;;;;;;;8.37;2.67;;;;;;;13.32;67.35;99359.19;4965165;28;20236;-57
2022/09/20 09:25:19;;;;;;;8.67;2.43;;;;;;;13.40;67.87;99356.66;4962445;28;20296;-57
2022/09/20 09:27:51;;;;;;;10.70;2.50;;;;;;;13.32;66.30;99353.94;4961020;28;20640;-56
2022/09/20 09:30:22;;;;;;;12.17;2.93;;;;;;;13.30;67.24;99356.72;4966782;28;20277;-56
2022/09/20 09:32:49;;;;;;;8.83;2.50;;;;;;;13.35;66.76;99353.66;4960378;28;20224;-56
2022/09/20 09:35:26;;;;;;;7.87;2.40;;;;;;;13.45;65.81;99353.63;4964752;28;20233;-57
2022/09/20 09:37:54;;;;;;;8.13;2.30;;;;;;;13.34;67.76;99344.97;4965722;28;20240;-57
2022/09/20 09:40:23;;;;;;;8.20;2.50;;;;;;;13.55;66.98;99354.34;4967983;28;20248;-57
2022/09/20 09:42:51;;;;;;;7.77;2.40;;;;;;;13.55;67.38;99349.91;4962005;28;20559;-56
2022/09/20 09:45:31;;;;;;;6.07;2.07;;;;;;;13.41;66.60;99356.53;4979595;28;20240;-58
2022/09/20 09:48:00;;;;;;;6.37;2.13;;;;;;;13.28;66.74;99356.88;4960483;28;20236;-57
2022/09/20 09:50:47;;;;;;;9.17;2.30;;;;;;;13.15;66.67;99351.19;4964773;28;20335;-57
2022/09/20 09:53:15;;;;;;;8.10;2.40;;;;;;;13.27;65.58;99349.16;4967407;28;20357;-57
2022/09/20 09:56:25;;;;;;;8.10;2.60;;;;;;;13.48;63.98;99341.00;4969284;28;20240;-57
2022/09/20 09:59:09;;;;;;;7.77;2.23;;;;;;;13.42;63.93;99349.47;4951687;28;20230;-57
2022/09/20 10:01:42;;;;;;;7.60;2.10;;;;;;;13.29;65.05;99347.22;4968248;28;20237;-56
2022/09/20 10:04:17;;;;;;;5.43;2.17;;;;;;;13.32;64.81;99346.09;4963520;28;20263;-57
2022/09/20 10:06:50;;;;;;;5.23;1.90;;;;;;;13.25;67.40;99341.44;4965504;28;20712;-57
2022/09/20 10:09:35;;;;;;;6.23;2.30;;;;;;;13.38;66.23;99346.31;4966484;28;20593;-57
2022/09/20 10:12:13;;;;;;;7.50;1.93;;;;;;;13.72;65.18;99339.53;4962667;28;20857;-57
2022/09/20 10:14:53;;;;;;;6.07;1.83;;;;;;;14.24;63.00;99338.69;4967790;28;20237;-57
2022/09/20 10:17:34;;;;;;;5.93;1.83;;;;;;;14.76;60.64;99337.75;4966630;28;20269;-56
2022/09/20 10:20:13;;;;;;;6.80;1.83;;;;;;;15.31;58.07;99338.19;4966688;28;20229;-57
2022/09/20 10:22:50;;;;;;;11.60;2.23;;;;;;;15.53;60.37;99338.47;4968682;28;20242;-58
2022/09/20 10:25:32;;;;;;;8.33;1.67;;;;;;;15.54;58.03;99339.31;4966598;28;20234;-57
2022/09/20 10:28:15;;;;;;;11.13;1.73;;;;;;;15.61;56.71;99335.84;4965954;28;20243;-57
2022/09/20 10:30:57;;;;;;;7.97;1.23;;;;;;;15.69;56.92;99335.03;4969494;28;20225;-57
2022/09/20 10:33:33;;;;;;;7.20;1.60;;;;;;;15.14;56.27;99336.53;4964764;28;20231;-57
2022/09/20 10:36:16;;;;;;;4.40;1.40;;;;;;;15.05;56.71;99336.50;4964626;28;20281;-58
2022/09/20 10:38:52;;;;;;;6.57;1.17;;;;;;;14.57;54.12;99333.56;4969491;28;20272;-57
2022/09/20 10:44:35;;;;;;;8.43;1.37;;;;;;;14.39;54.72;99338.91;4964738;28;20237;-57
2022/09/20 10:47:10;;;;;;;5.30;1.00;;;;;;;14.38;54.80;99339.88;4964957;28;20471;-56
2022/09/20 10:49:42;;;;;;;5.63;1.10;;;;;;;14.21;54.28;99335.56;4965255;28;20243;-57
2022/09/20 10:52:44;;;;;;;3.77;1.20;;;;;;;14.70;53.95;99343.66;4965002;28;20230;-57
2022/09/20 10:55:26;;;;;;;3.50;1.30;;;;;;;14.82;51.40;99344.19;4957705;28;20272;-57
2022/09/20 10:58:13;;;;;;;4.27;1.20;;;;;;;15.08;51.76;99337.97;4967909;28;20258;-56
2022/09/20 11:00:48;;;;;;;4.10;1.30;;;;;;;15.30;51.09;99335.69;4955181;28;20234;-56
2022/09/20 11:03:31;;;;;;;5.17;1.03;;;;;;;15.42;51.00;99331.75;4965465;28;20889;-57
2022/09/20 11:06:13;;;;;;;4.40;1.60;;;;;;;15.80;49.91;99331.22;4965724;28;20293;-57
2022/09/20 11:08:42;;;;;;;7.20;1.60;;;;;;;15.80;50.58;99336.47;4967251;28;20259;-57
2022/09/20 11:11:13;;;;;;;6.20;1.33;;;;;;;15.58;49.77;99338.81;4964768;28;20243;-57
2022/09/20 11:13:45;;;;;;;5.53;1.07;;;;;;;15.13;49.33;99342.75;4969845;28;20321;-57
2022/09/20 11:16:16;;;;;;;3.47;0.93;;;;;;;15.06;48.62;99339.94;4965870;28;20244;-56
2022/09/20 11:18:50;;;;;;;5.20;0.87;;;;;;;14.98;49.40;99334.69;4963984;28;20776;-58
2022/09/20 11:21:21;;;;;;;4.73;1.10;;;;;;;15.07;49.27;99341.59;4968735;28;20593;-57
2022/09/20 11:23:55;;;;;;;5.73;1.13;;;;;;;15.42;49.35;99339.66;4964599;28;20249;-57
2022/09/20 11:26:29;;;;;;;6.20;1.40;;;;;;;15.76;50.41;99336.00;4967355;28;20227;-57
2022/09/20 11:29:22;;;;;;;8.30;1.20;;;;;;;16.34;49.11;99342.97;4964845;28;20317;-58
2022/09/20 11:31:53;;;;;;;6.13;1.37;;;;;;;16.53;48.02;99339.09;4964950;28;20309;-57
2022/09/20 11:34:28;;;;;;;3.30;1.00;;;;;;;16.96;47.48;99344.78;4969670;28;20657;-57
2022/09/20 11:36:58;;;;;;;4.87;1.03;;;;;;;16.82;49.12;99342.91;4966082;28;20238;-56
2022/09/20 11:39:30;;;;;;;6.87;1.30;;;;;;;16.51;46.03;99341.88;4968736;28;20756;-57
2022/09/20 11:42:00;;;;;;;4.53;1.10;;;;;;;16.47;46.07;99332.66;4966093;28;20760;-57
2022/09/20 11:44:27;;;;;;;3.77;0.93;;;;;;;16.22;48.38;99331.97;4968803;28;20254;-57
2022/09/20 11:46:58;;;;;;;4.17;1.00;;;;;;;15.74;47.47;99337.16;4967822;28;20333;-58
2022/09/20 11:49:30;;;;;;;10.43;1.50;;;;;;;15.51;49.52;99332.56;4967554;28;20223;-57
2022/09/20 11:52:29;;;;;;;5.63;1.47;;;;;;;15.52;47.27;99331.56;4963348;28;20235;-57
2022/09/20 11:55:11;;;;;;;5.77;1.67;;;;;;;15.29;47.49;99334.06;4963641;28;20306;-57
2022/09/20 11:57:38;;;;;;;3.17;1.20;;;;;;;15.12;47.33;99327.97;4969795;28;20247;-58
2022/09/20 12:00:07;;;;;;;3.37;1.40;;;;;;;15.33;46.92;99330.09;4965285;28;20292;-57
2022/09/20 12:02:46;;;;;;;3.27;1.10;;;;;;;15.37;47.90;99331.44;4968460;28;20722;-57
2022/09/20 12:05:27;;;;;;;5.50;1.23;;;;;;;15.30;49.09;99323.38;4962580;28;20617;-56
2022/09/20 12:07:56;;;;;;;4.50;1.10;;;;;;;15.42;47.90;99320.41;4962711;28;20270;-57
2022/09/20 12:10:25;;;;;;;5.53;1.43;;;;;;;15.95;46.46;99320.84;4966425;28;20755;-56
2022/09/20 12:13:23;;;;;;;3.67;1.73;;;;;;;16.04;46.21;99319.84;4962996;28;20367;-57
2022/09/20 12:15:59;;;;;;;6.33;1.20;;;;;;;15.96;47.64;99317.22;4962478;28;20227;-58
2022/09/20 12:18:47;;;;;;;2.30;1.10;;;;;;;16.12;47.52;99316.38;4966214;28;20222;-58
2022/09/20 12:21:19;;;;;;;5.40;1.30;;;;;;;16.20;47.27;99312.88;4963344;28;20621;-58
2022/09/20 12:24:08;;;;;;;5.90;1.00;;;;;;;15.89;43.99;99324.97;4965597;28;20235;-58
2022/09/20 12:26:42;;;;;;;5.13;1.20;;;;;;;15.79;46.74;99314.63;4968722;28;20783;-58
2022/09/20 12:29:54;;;;;;;3.33;0.80;;;;;;;15.77;47.67;99315.75;4963667;28;20235;-58
2022/09/20 12:32:42;;;;;;;2.20;0.70;;;;;;;15.83;48.71;99320.34;4965021;28;20234;-56